createdAt,value
2017-10-27T00:01:59.845Z,3.53
2017-10-27T00:04:27.439Z,3.83
2017-10-27T00:06:55.071Z,4.13
2017-10-27T00:09:22.616Z,4.17
2017-10-27T00:11:50.206Z,4.13
2017-10-27T00:14:17.755Z,3.90
2017-10-27T00:16:45.345Z,3.80
2017-10-27T00:19:12.873Z,4.10
2017-10-27T00:21:40.434Z,4.00
2017-10-27T00:24:07.980Z,4.27
2017-10-27T00:26:35.547Z,4.40
2017-10-27T00:29:03.125Z,4.10
2017-10-27T00:31:30.801Z,4.43
2017-10-27T00:33:58.384Z,4.10
2017-10-27T00:36:25.989Z,4.37
2017-10-27T00:38:53.557Z,3.93
2017-10-27T00:41:21.865Z,3.60
2017-10-27T00:43:49.477Z,3.60
2017-10-27T00:46:16.999Z,3.20
2017-10-27T00:48:44.573Z,3.57
2017-10-27T00:51:12.124Z,3.27
2017-10-27T00:53:39.744Z,3.30
2017-10-27T00:56:11.303Z,3.50
2017-10-27T00:58:38.895Z,3.13
2017-10-27T01:01:06.515Z,3.20
2017-10-27T01:03:34.779Z,3.17
2017-10-27T01:06:02.382Z,2.80
2017-10-27T01:08:31.040Z,3.20
2017-10-27T01:10:58.817Z,3.90
2017-10-27T01:13:26.406Z,3.10
2017-10-27T01:15:54.008Z,3.80
2017-10-27T01:18:21.606Z,3.33
2017-10-27T01:20:49.200Z,3.57
2017-10-27T01:23:17.535Z,3.90
2017-10-27T01:25:45.132Z,3.80
2017-10-27T01:28:12.768Z,3.80
2017-10-27T01:30:40.367Z,3.30
2017-10-27T01:33:07.953Z,3.30
2017-10-27T01:35:35.501Z,3.10
2017-10-27T01:38:03.084Z,3.33
2017-10-27T01:40:31.483Z,3.57
2017-10-27T01:42:59.049Z,3.60
2017-10-27T01:45:26.626Z,3.40
2017-10-27T01:47:54.239Z,4.80
2017-10-27T01:50:21.814Z,3.90
2017-10-27T01:52:50.989Z,3.43
2017-10-27T01:55:18.582Z,3.97
2017-10-27T01:57:46.967Z,4.13
2017-10-27T02:00:14.497Z,3.70
2017-10-27T02:02:42.136Z,3.90
2017-10-27T02:05:09.719Z,3.27
2017-10-27T02:07:38.280Z,3.63
2017-10-27T02:10:05.848Z,3.70
2017-10-27T02:12:33.443Z,3.90
2017-10-27T02:15:01.048Z,3.20
2017-10-27T02:17:30.449Z,2.90
2017-10-27T02:19:58.797Z,3.40
2017-10-27T02:22:26.378Z,3.10
2017-10-27T02:24:53.976Z,3.03
2017-10-27T02:27:22.355Z,3.47
2017-10-27T02:29:50.753Z,4.10
2017-10-27T02:32:19.097Z,3.33
2017-10-27T02:34:46.670Z,3.60
2017-10-27T02:37:14.215Z,3.70
2017-10-27T02:39:41.833Z,3.67
2017-10-27T02:42:10.151Z,3.30
2017-10-27T02:44:37.753Z,4.20
2017-10-27T02:47:05.337Z,3.07
2017-10-27T02:49:33.662Z,3.00
2017-10-27T02:52:01.277Z,3.57
2017-10-27T02:54:28.833Z,3.33
2017-10-27T02:56:57.205Z,3.57
2017-10-27T02:59:24.778Z,3.10
2017-10-27T03:01:52.385Z,3.20
2017-10-27T03:04:19.965Z,2.70
2017-10-27T03:06:47.569Z,3.27
2017-10-27T03:09:15.940Z,2.73
2017-10-27T03:11:43.531Z,3.20
2017-10-27T03:14:11.131Z,2.77
2017-10-27T03:16:38.698Z,2.70
2017-10-27T03:19:06.322Z,3.20
2017-10-27T03:21:33.860Z,2.73
2017-10-27T03:24:01.436Z,3.00
2017-10-27T03:26:28.993Z,2.70
2017-10-27T03:28:56.709Z,2.70
2017-10-27T03:31:24.269Z,2.57
2017-10-27T03:33:52.630Z,2.70
2017-10-27T03:36:20.176Z,2.90
2017-10-27T03:38:47.769Z,3.40
2017-10-27T03:41:16.449Z,3.57
2017-10-27T03:43:44.084Z,3.00
2017-10-27T03:46:11.695Z,3.20
2017-10-27T03:48:39.323Z,3.97
2017-10-27T03:51:06.977Z,3.40
2017-10-27T03:53:34.537Z,3.10
2017-10-27T03:56:02.154Z,3.33
2017-10-27T03:58:29.750Z,3.50
2017-10-27T04:00:58.361Z,3.80
2017-10-27T04:03:25.934Z,3.30
2017-10-27T04:05:53.525Z,3.67
2017-10-27T04:08:21.893Z,4.10
2017-10-27T04:10:49.446Z,3.60
2017-10-27T04:13:17.075Z,4.20
2017-10-27T04:15:44.720Z,4.20
2017-10-27T04:18:14.059Z,4.20
2017-10-27T04:20:41.652Z,4.77
2017-10-27T04:23:09.239Z,4.30
2017-10-27T04:25:36.833Z,5.00
2017-10-27T04:28:04.413Z,4.57
2017-10-27T04:30:33.109Z,4.13
2017-10-27T04:33:00.686Z,4.43
2017-10-27T04:35:28.299Z,4.63
2017-10-27T04:37:56.673Z,4.60
2017-10-27T04:40:25.007Z,4.80
2017-10-27T04:42:52.539Z,5.50
2017-10-27T04:45:20.888Z,5.90
2017-10-27T04:47:48.447Z,4.93
2017-10-27T04:50:16.003Z,4.50
2017-10-27T04:52:43.585Z,5.03
2017-10-27T04:55:12.174Z,6.50
2017-10-27T04:57:39.742Z,5.63
2017-10-27T05:00:08.705Z,6.20
2017-10-27T05:02:36.294Z,5.90
2017-10-27T05:05:03.863Z,6.03
2017-10-27T05:07:31.426Z,5.90
2017-10-27T05:09:58.986Z,6.20
2017-10-27T05:12:27.917Z,6.70
2017-10-27T05:14:56.792Z,6.97
2017-10-27T05:17:30.032Z,6.50
2017-10-27T05:20:03.348Z,8.07
2017-10-27T05:22:37.336Z,6.97
2017-10-27T05:25:04.911Z,7.73
2017-10-27T05:27:32.508Z,7.30
2017-10-27T05:30:00.091Z,7.80
2017-10-27T05:32:27.661Z,7.33
2017-10-27T05:34:55.241Z,8.17
2017-10-27T05:37:23.587Z,8.10
2017-10-27T05:39:51.179Z,8.40
2017-10-27T05:42:18.737Z,8.73
2017-10-27T05:44:47.187Z,8.47
2017-10-27T05:47:14.763Z,8.00
2017-10-27T05:49:42.340Z,9.03
2017-10-27T05:52:09.938Z,9.03
2017-10-27T05:54:38.284Z,11.00
2017-10-27T05:57:06.092Z,9.23
2017-10-27T05:59:33.678Z,9.63
2017-10-27T06:02:01.578Z,9.07
2017-10-27T06:04:29.152Z,10.30
2017-10-27T06:06:56.774Z,10.80
2017-10-27T06:09:24.352Z,9.97
2017-10-27T06:11:51.927Z,9.33
2017-10-27T06:14:19.474Z,9.00
2017-10-27T06:16:47.458Z,10.47
2017-10-27T06:19:15.062Z,9.17
2017-10-27T06:21:42.625Z,9.57
2017-10-27T06:24:10.226Z,10.37
2017-10-27T06:26:38.757Z,8.73
2017-10-27T06:29:08.282Z,9.43
2017-10-27T06:31:36.281Z,10.00
2017-10-27T06:34:04.613Z,10.73
2017-10-27T06:36:32.200Z,11.17
2017-10-27T06:38:59.787Z,10.40
2017-10-27T06:41:28.135Z,9.60
2017-10-27T06:43:55.720Z,10.77
2017-10-27T06:46:23.280Z,9.10
2017-10-27T06:48:50.857Z,11.60
2017-10-27T06:51:18.633Z,10.03
2017-10-27T06:53:46.171Z,9.83
2017-10-27T06:56:13.747Z,11.10
2017-10-27T06:58:41.299Z,10.93
2017-10-27T07:01:08.892Z,9.57
2017-10-27T07:03:37.247Z,10.30
2017-10-27T07:06:04.832Z,10.23
2017-10-27T07:08:33.210Z,11.70
2017-10-27T07:11:00.791Z,9.30
2017-10-27T07:13:29.110Z,9.03
2017-10-27T07:15:56.669Z,9.77
2017-10-27T07:18:24.243Z,9.33
2017-10-27T07:20:51.839Z,9.30
2017-10-27T07:23:19.413Z,9.30
2017-10-27T07:25:46.993Z,10.63
2017-10-27T07:28:14.668Z,9.50
2017-10-27T07:30:43.028Z,9.40
2017-10-27T07:33:10.595Z,9.80
2017-10-27T07:35:38.214Z,8.70
2017-10-27T07:38:05.776Z,9.87
2017-10-27T07:40:33.365Z,9.60
2017-10-27T07:43:00.943Z,8.57
2017-10-27T07:45:28.579Z,8.13
2017-10-27T07:47:56.162Z,8.67
2017-10-27T07:50:23.739Z,8.37
2017-10-27T07:52:52.851Z,6.93
2017-10-27T07:55:20.411Z,7.10
2017-10-27T07:57:48.058Z,7.13
2017-10-27T08:00:18.504Z,7.70
2017-10-27T08:02:46.076Z,7.70
2017-10-27T08:05:13.669Z,6.63
2017-10-27T08:07:42.052Z,6.40
2017-10-27T08:10:10.430Z,7.03
2017-10-27T08:12:37.994Z,7.70
2017-10-27T08:15:08.604Z,7.00
2017-10-27T08:17:36.198Z,6.20
2017-10-27T08:20:04.530Z,6.77
2017-10-27T08:22:33.126Z,6.60
2017-10-27T08:25:00.724Z,7.23
2017-10-27T08:27:29.136Z,5.87
2017-10-27T08:29:57.517Z,6.10
2017-10-27T08:32:25.080Z,6.60
2017-10-27T08:34:52.698Z,6.20
2017-10-27T08:37:20.313Z,6.03
2017-10-27T08:39:48.664Z,7.03
2017-10-27T08:42:27.162Z,5.43
2017-10-27T08:44:54.764Z,5.77
2017-10-27T08:47:23.060Z,5.97
2017-10-27T08:49:50.615Z,5.70
2017-10-27T08:52:18.963Z,4.63
2017-10-27T08:54:46.522Z,5.00
2017-10-27T08:57:14.147Z,5.40
2017-10-27T08:59:41.704Z,4.67
2017-10-27T09:02:09.319Z,4.80
2017-10-27T09:04:36.910Z,5.60
2017-10-27T09:07:05.276Z,4.97
2017-10-27T09:09:32.884Z,5.00
2017-10-27T09:12:01.835Z,5.13
2017-10-27T09:14:29.419Z,5.13
2017-10-27T09:16:57.804Z,4.43
2017-10-27T09:19:26.205Z,5.07
2017-10-27T09:21:53.778Z,4.40
2017-10-27T09:24:22.335Z,4.30
2017-10-27T09:26:49.927Z,3.73
2017-10-27T09:29:17.556Z,2.87
2017-10-27T09:31:45.166Z,3.10
2017-10-27T09:34:13.260Z,2.80
2017-10-27T09:36:40.883Z,2.80
2017-10-27T09:39:09.238Z,2.47
2017-10-27T09:41:36.884Z,2.70
2017-10-27T09:44:04.478Z,1.83
2017-10-27T09:46:32.859Z,2.80
2017-10-27T09:49:00.514Z,2.40
2017-10-27T09:51:28.107Z,2.40
2017-10-27T09:53:56.528Z,2.40
2017-10-27T09:56:24.135Z,2.13
2017-10-27T09:58:51.753Z,1.93
2017-10-27T10:01:19.353Z,2.30
2017-10-27T10:03:46.965Z,2.80
2017-10-27T10:06:14.507Z,2.23
2017-10-27T10:08:42.888Z,2.90
2017-10-27T10:11:10.529Z,2.63
2017-10-27T10:13:38.140Z,2.90
2017-10-27T10:16:06.556Z,2.37
2017-10-27T10:18:34.144Z,3.20
2017-10-27T10:21:01.738Z,3.37
2017-10-27T10:23:29.331Z,3.87
2017-10-27T10:25:56.946Z,4.47
2017-10-27T10:28:24.511Z,5.07
2017-10-27T10:30:52.164Z,5.47
2017-10-27T10:33:19.764Z,5.87
2017-10-27T10:35:47.351Z,5.80
2017-10-27T10:38:14.926Z,5.60
2017-10-27T10:40:42.498Z,5.07
2017-10-27T10:43:10.112Z,5.70
2017-10-27T10:45:37.719Z,5.50
2017-10-27T10:48:06.086Z,5.53
2017-10-27T10:50:34.453Z,5.40
2017-10-27T10:53:02.035Z,5.33
2017-10-27T10:55:29.617Z,4.90
2017-10-27T10:57:57.219Z,5.40
2017-10-27T11:00:24.827Z,5.10
2017-10-27T11:02:52.651Z,6.00
2017-10-27T11:05:20.343Z,5.90
2017-10-27T11:07:47.935Z,6.10
2017-10-27T11:10:16.333Z,6.00
2017-10-27T11:12:44.861Z,6.90
2017-10-27T11:15:12.493Z,6.60
2017-10-27T11:17:40.132Z,6.07
2017-10-27T11:20:08.519Z,6.00
2017-10-27T11:22:36.990Z,6.43
2017-10-27T11:25:04.583Z,6.93
2017-10-27T11:27:34.347Z,6.90
2017-10-27T11:30:02.227Z,6.83
2017-10-27T11:32:29.815Z,5.97
2017-10-27T11:34:57.449Z,6.13
2017-10-27T11:37:25.035Z,6.70
2017-10-27T11:39:52.841Z,6.77
2017-10-27T11:42:20.834Z,7.07
2017-10-27T11:44:48.501Z,8.00
2017-10-27T11:47:16.246Z,7.50
2017-10-27T11:49:43.957Z,6.40
2017-10-27T11:52:11.576Z,6.67
2017-10-27T11:54:39.235Z,8.13
2017-10-27T11:57:07.636Z,6.80
2017-10-27T11:59:36.614Z,7.13
2017-10-27T12:02:04.538Z,9.10
2017-10-27T12:04:32.113Z,7.63
2017-10-27T12:06:59.746Z,7.10
2017-10-27T12:09:27.361Z,6.90
2017-10-27T12:11:54.919Z,6.77
2017-10-27T12:14:22.755Z,7.93
2017-10-27T12:16:50.542Z,7.67
2017-10-27T12:19:18.158Z,6.50
2017-10-27T12:21:46.480Z,7.40
2017-10-27T12:24:14.079Z,7.50
2017-10-27T12:26:41.709Z,6.37
2017-10-27T12:29:10.223Z,6.80
2017-10-27T12:31:38.110Z,7.20
2017-10-27T12:34:05.877Z,6.63
2017-10-27T12:36:33.467Z,6.60
2017-10-27T12:39:02.207Z,6.10
2017-10-27T12:41:29.812Z,6.33
2017-10-27T12:43:57.646Z,6.30
2017-10-27T12:46:25.453Z,5.70
2017-10-27T12:48:53.847Z,5.53
2017-10-27T12:51:21.522Z,5.43
2017-10-27T12:53:49.969Z,6.47
2017-10-27T12:56:17.573Z,5.07
2017-10-27T12:58:45.926Z,5.33
2017-10-27T13:01:13.539Z,5.57
2017-10-27T13:03:41.143Z,5.60
2017-10-27T13:06:08.755Z,5.30
2017-10-27T13:08:37.696Z,5.47
2017-10-27T13:11:05.255Z,5.30
2017-10-27T13:13:32.871Z,5.87
2017-10-27T13:16:00.527Z,5.90
2017-10-27T13:18:28.903Z,5.47
2017-10-27T13:20:56.512Z,6.97
2017-10-27T13:23:24.130Z,5.40
2017-10-27T13:25:51.682Z,5.97
2017-10-27T13:28:19.258Z,6.10
2017-10-27T13:30:46.851Z,5.53
2017-10-27T13:33:14.456Z,5.60
2017-10-27T13:35:42.044Z,6.03
2017-10-27T13:38:09.576Z,7.60
2017-10-27T13:40:37.138Z,5.93
2017-10-27T13:43:04.705Z,6.57
2017-10-27T13:45:32.264Z,6.40
2017-10-27T13:48:00.574Z,6.03
2017-10-27T13:50:28.148Z,5.33
2017-10-27T13:52:55.710Z,5.30
2017-10-27T13:55:23.302Z,4.80
2017-10-27T13:57:51.038Z,4.70
2017-10-27T14:00:18.575Z,5.47
2017-10-27T14:02:46.156Z,5.57
2017-10-27T14:05:13.706Z,5.50
2017-10-27T14:07:41.324Z,4.80
2017-10-27T14:10:08.902Z,5.60
2017-10-27T14:12:37.356Z,5.57
2017-10-27T14:15:04.957Z,4.70
2017-10-27T14:17:33.412Z,5.70
2017-10-27T14:20:01.030Z,4.30
2017-10-27T14:22:28.656Z,4.10
2017-10-27T14:24:56.264Z,5.50
2017-10-27T14:27:23.872Z,4.60
2017-10-27T14:29:51.468Z,4.73
2017-10-27T14:32:19.012Z,4.70
2017-10-27T14:34:46.612Z,5.43
2017-10-27T14:37:14.965Z,4.37
2017-10-27T14:39:42.614Z,4.57
2017-10-27T14:42:10.260Z,3.70
2017-10-27T14:44:37.828Z,3.80
2017-10-27T14:47:05.415Z,4.40
2017-10-27T14:49:33.035Z,4.40
2017-10-27T14:52:00.629Z,3.70
2017-10-27T14:54:28.248Z,4.33
2017-10-27T14:56:56.946Z,3.90
2017-10-27T14:59:25.303Z,3.73
2017-10-27T15:01:52.866Z,3.70
2017-10-27T15:04:22.257Z,4.13
2017-10-27T15:06:49.900Z,4.43
2017-10-27T15:09:17.533Z,3.97
2017-10-27T15:11:45.895Z,4.67
2017-10-27T15:14:13.460Z,4.30
2017-10-27T15:16:41.149Z,3.90
2017-10-27T15:19:09.541Z,4.30
2017-10-27T15:21:37.279Z,4.60
2017-10-27T15:24:04.856Z,4.13
2017-10-27T15:26:33.269Z,4.70
2017-10-27T15:29:00.931Z,4.60
2017-10-27T15:31:28.509Z,4.07
2017-10-27T15:33:57.926Z,4.30
2017-10-27T15:36:25.522Z,4.10
2017-10-27T15:38:54.665Z,3.60
2017-10-27T15:41:22.275Z,3.70
2017-10-27T15:43:49.877Z,4.30
2017-10-27T15:46:17.571Z,4.50
2017-10-27T15:48:45.202Z,4.53
2017-10-27T15:51:13.002Z,3.83
2017-10-27T15:53:40.923Z,3.27
2017-10-27T15:56:08.554Z,3.87
2017-10-27T15:58:36.187Z,4.53
2017-10-27T16:01:04.487Z,4.00
2017-10-27T16:03:32.119Z,4.40
2017-10-27T16:05:59.699Z,3.90
2017-10-27T16:08:28.005Z,5.17
2017-10-27T16:10:55.823Z,4.40
2017-10-27T16:13:23.412Z,4.63
2017-10-27T16:15:51.766Z,4.70
2017-10-27T16:18:20.142Z,4.80
2017-10-27T16:20:47.770Z,4.40
2017-10-27T16:23:15.334Z,4.93
2017-10-27T16:25:42.936Z,5.00
2017-10-27T16:28:10.647Z,5.23
2017-10-27T16:30:39.155Z,8.70
2017-10-27T16:33:07.152Z,7.27
2017-10-27T16:35:34.732Z,5.77
2017-10-27T16:38:02.259Z,5.80
2017-10-27T16:40:29.844Z,5.77
2017-10-27T16:42:57.390Z,5.00
2017-10-27T16:45:25.002Z,6.53
2017-10-27T16:47:52.554Z,5.90
2017-10-27T16:50:20.098Z,6.60
2017-10-27T16:52:47.853Z,6.63
2017-10-27T16:55:15.453Z,6.37
2017-10-27T16:57:43.198Z,6.00
2017-10-27T17:00:10.747Z,6.43
2017-10-27T17:02:38.925Z,6.17
2017-10-27T17:05:06.860Z,6.17
2017-10-27T17:07:34.488Z,5.83
2017-10-27T17:10:02.084Z,6.80
2017-10-27T17:12:29.624Z,6.57
2017-10-27T17:14:57.194Z,6.83
2017-10-27T17:17:24.740Z,6.47
2017-10-27T17:19:52.315Z,7.30
2017-10-27T17:22:20.723Z,7.80
2017-10-27T17:24:48.284Z,8.30
2017-10-27T17:27:16.816Z,7.73
2017-10-27T17:29:44.823Z,7.33
2017-10-27T17:32:12.561Z,7.13
2017-10-27T17:34:40.121Z,8.93
2017-10-27T17:37:07.761Z,8.47
2017-10-27T17:39:35.347Z,9.27
2017-10-27T17:42:04.702Z,10.10
2017-10-27T17:44:32.319Z,8.60
2017-10-27T17:46:59.931Z,8.80
2017-10-27T17:49:27.508Z,9.57
2017-10-27T17:51:55.155Z,8.48
2017-10-27T17:54:22.743Z,7.97
2017-10-27T17:56:50.363Z,8.67
2017-10-27T17:59:17.950Z,9.20
2017-10-27T18:01:45.558Z,10.00
2017-10-27T18:04:13.895Z,9.80
2017-10-27T18:06:41.467Z,9.20
2017-10-27T18:09:09.337Z,12.27
2017-10-27T18:11:36.967Z,10.20
2017-10-27T18:14:05.706Z,9.10
2017-10-27T18:16:33.445Z,8.73
2017-10-27T18:19:01.186Z,8.40
2017-10-27T18:21:28.845Z,9.18
2017-10-27T18:23:57.293Z,7.77
2017-10-27T18:26:28.852Z,11.68
2017-10-27T18:28:57.856Z,7.43
2017-10-27T18:31:25.920Z,7.40
2017-10-27T18:33:54.757Z,7.80
2017-10-27T18:36:24.473Z,8.57
2017-10-27T18:38:52.317Z,7.67
2017-10-27T18:41:38.717Z,8.10
2017-10-27T18:44:06.493Z,7.40
2017-10-27T18:46:35.051Z,7.20
2017-10-27T18:49:03.574Z,7.50
2017-10-27T18:51:32.917Z,7.50
2017-10-27T18:54:01.015Z,7.40
2017-10-27T18:56:35.884Z,7.33
2017-10-27T18:59:03.577Z,8.00
2017-10-27T19:01:31.495Z,8.27
2017-10-27T19:03:59.323Z,7.13
2017-10-27T19:06:26.939Z,8.00
2017-10-27T19:08:54.519Z,8.60
2017-10-27T19:11:22.079Z,7.60
2017-10-27T19:13:49.794Z,8.30
2017-10-27T19:16:20.004Z,8.03
2017-10-27T19:18:48.868Z,8.67
2017-10-27T19:21:17.725Z,7.70
2017-10-27T19:23:45.450Z,7.40
2017-10-27T19:26:21.052Z,8.67
2017-10-27T19:28:52.701Z,7.43
2017-10-27T19:31:30.014Z,7.70
2017-10-27T19:34:07.432Z,7.00
2017-10-27T19:36:36.085Z,8.03
2017-10-27T19:39:04.615Z,8.20
2017-10-27T19:41:34.619Z,7.30
2017-10-27T19:44:02.730Z,7.30
2017-10-27T19:46:32.185Z,7.83
2017-10-27T19:49:01.310Z,7.30
2017-10-27T19:51:30.813Z,7.22
2017-10-27T19:53:59.699Z,9.03
2017-10-27T19:56:28.117Z,8.27
2017-10-27T19:58:56.094Z,8.30
2017-10-27T20:01:24.056Z,8.37
2017-10-27T20:03:52.966Z,8.32
2017-10-27T20:06:21.683Z,6.63
2017-10-27T20:08:50.101Z,8.33
2017-10-27T20:11:18.326Z,7.30
2017-10-27T20:13:49.896Z,7.83
2017-10-27T20:16:18.502Z,7.53
2017-10-27T20:18:47.556Z,8.03
2017-10-27T20:21:15.485Z,7.33
2017-10-27T20:23:43.719Z,8.07
2017-10-27T20:26:15.399Z,8.17
2017-10-27T20:28:44.074Z,8.40
2017-10-27T20:31:15.356Z,8.27
2017-10-27T20:33:44.284Z,8.70
2017-10-27T20:36:12.408Z,6.87
2017-10-27T20:38:42.469Z,7.40
2017-10-27T20:41:10.522Z,7.70
2017-10-27T20:43:38.963Z,7.70
2017-10-27T20:46:07.537Z,7.05
2017-10-27T20:48:36.576Z,7.20
2017-10-27T20:51:04.666Z,7.23
2017-10-27T20:53:32.456Z,8.20
2017-10-27T20:56:00.215Z,8.43
2017-10-27T20:58:29.246Z,7.40
2017-10-27T21:00:56.905Z,6.97
2017-10-27T21:03:25.635Z,7.90
2017-10-27T21:05:53.444Z,7.90
2017-10-27T21:08:22.790Z,8.15
2017-10-27T21:10:52.937Z,7.30
2017-10-27T21:13:21.264Z,7.67
2017-10-27T21:15:51.253Z,7.57
2017-10-27T21:18:19.190Z,7.00
2017-10-27T21:20:48.185Z,7.65
2017-10-27T21:23:15.873Z,7.80
2017-10-27T21:25:44.545Z,7.53
2017-10-27T21:28:13.120Z,8.80
2017-10-27T21:30:40.911Z,8.73
2017-10-27T21:33:09.007Z,7.83
2017-10-27T21:35:36.659Z,8.00
2017-10-27T21:38:05.248Z,7.40
2017-10-27T21:40:33.379Z,7.97
2017-10-27T21:43:01.005Z,6.80
2017-10-27T21:45:28.731Z,7.33
2017-10-27T21:47:56.454Z,7.62
2017-10-27T21:50:24.055Z,6.90
2017-10-27T21:52:51.714Z,7.00
2017-10-27T21:55:19.316Z,7.90
2017-10-27T21:57:46.882Z,7.00
2017-10-27T22:00:14.490Z,7.57
2017-10-27T22:02:42.118Z,7.83
2017-10-27T22:05:09.668Z,7.40
2017-10-27T22:07:37.254Z,7.60
2017-10-27T22:10:04.863Z,7.60
2017-10-27T22:12:32.511Z,8.07
2017-10-27T22:15:00.187Z,7.53
2017-10-27T22:17:27.776Z,7.17
2017-10-27T22:19:55.348Z,8.10
2017-10-27T22:22:23.690Z,8.35
2017-10-27T22:24:51.472Z,7.53
2017-10-27T22:27:19.254Z,8.90
2017-10-27T22:29:46.877Z,8.53
2017-10-27T22:32:16.323Z,7.80
2017-10-27T22:34:43.878Z,7.87
2017-10-27T22:37:12.928Z,8.00
2017-10-27T22:39:40.547Z,8.90
2017-10-27T22:42:10.771Z,8.17
2017-10-27T22:44:38.498Z,7.93
2017-10-27T22:47:06.101Z,8.30
2017-10-27T22:49:33.649Z,7.80
2017-10-27T22:52:18.281Z,7.60
2017-10-27T22:54:46.413Z,6.77
2017-10-27T22:57:16.021Z,8.53
2017-10-27T22:59:43.698Z,8.10
2017-10-27T23:02:11.244Z,7.87
2017-10-27T23:04:38.816Z,7.27
2017-10-27T23:07:09.868Z,7.30
2017-10-27T23:09:39.852Z,8.90
2017-10-27T23:12:08.250Z,7.70
2017-10-27T23:14:35.801Z,8.47
2017-10-27T23:17:03.467Z,8.57
2017-10-27T23:19:31.029Z,9.13
2017-10-27T23:21:59.382Z,8.43
2017-10-27T23:24:27.159Z,9.10
2017-10-27T23:26:54.771Z,8.50
2017-10-27T23:29:24.079Z,8.15
2017-10-27T23:31:51.705Z,7.90
2017-10-27T23:34:20.069Z,8.90
2017-10-27T23:36:47.643Z,8.45
2017-10-27T23:39:16.227Z,9.43
2017-10-27T23:41:45.136Z,9.07
2017-10-27T23:44:12.744Z,7.87
2017-10-27T23:46:40.327Z,8.80
2017-10-27T23:49:08.648Z,9.40
2017-10-27T23:51:36.244Z,9.80
2017-10-27T23:54:05.411Z,8.10
2017-10-27T23:56:32.996Z,8.70
2017-10-27T23:59:00.601Z,8.83
